createdAt,value
2018-02-08T00:00:08.038Z,118.40
2018-02-08T00:02:36.385Z,104.50
2018-02-08T00:05:04.727Z,110.47
2018-02-08T00:07:33.083Z,105.77
2018-02-08T00:10:01.413Z,106.17
2018-02-08T00:12:29.783Z,104.27
2018-02-08T00:14:58.123Z,96.50
2018-02-08T00:17:26.475Z,112.10
2018-02-08T00:19:54.811Z,106.93
2018-02-08T00:22:34.972Z,98.47
2018-02-08T00:25:03.386Z,105.67
2018-02-08T00:27:31.728Z,101.87
2018-02-08T00:30:00.958Z,105.47
2018-02-08T00:32:29.336Z,101.20
2018-02-08T00:34:57.686Z,104.83
2018-02-08T00:37:26.013Z,119.83
2018-02-08T00:39:55.369Z,98.63
2018-02-08T00:42:23.706Z,111.63
2018-02-08T00:44:52.057Z,119.37
2018-02-08T00:47:20.383Z,104.97
2018-02-08T00:49:49.173Z,125.97
2018-02-08T00:52:17.505Z,108.07
2018-02-08T00:54:45.943Z,111.90
2018-02-08T00:57:14.287Z,119.67
2018-02-08T00:59:42.621Z,120.07
2018-02-08T01:02:10.966Z,116.63
2018-02-08T01:04:39.308Z,120.20
2018-02-08T01:07:07.658Z,111.40
2018-02-08T01:09:35.995Z,119.00
2018-02-08T01:12:04.377Z,116.30
2018-02-08T01:14:32.698Z,116.87
2018-02-08T01:17:01.068Z,116.70
2018-02-08T01:19:29.412Z,112.30
2018-02-08T01:21:57.746Z,114.63
2018-02-08T01:24:26.116Z,111.33
2018-02-08T01:26:54.445Z,114.77
2018-02-08T01:29:22.817Z,127.43
2018-02-08T01:31:51.145Z,115.53
2018-02-08T01:34:19.523Z,112.67
2018-02-08T01:36:47.859Z,108.03
2018-02-08T01:39:16.211Z,107.47
2018-02-08T01:41:44.588Z,112.07
2018-02-08T01:44:12.946Z,127.43
2018-02-08T01:46:41.266Z,116.87
2018-02-08T01:49:09.842Z,112.73
2018-02-08T01:51:38.220Z,121.30
2018-02-08T01:54:06.554Z,118.77
2018-02-08T01:56:34.908Z,118.70
2018-02-08T01:59:03.230Z,116.63
2018-02-08T02:01:31.577Z,123.93
2018-02-08T02:03:59.907Z,110.33
2018-02-08T02:06:28.293Z,111.50
2018-02-08T02:08:56.667Z,108.60
2018-02-08T02:11:25.091Z,119.17
2018-02-08T02:13:53.417Z,115.83
2018-02-08T02:16:21.793Z,131.00
2018-02-08T02:18:50.191Z,111.10
2018-02-08T02:21:18.523Z,113.90
2018-02-08T02:23:46.883Z,127.67
2018-02-08T02:26:15.223Z,127.87
2018-02-08T02:28:43.596Z,115.80
2018-02-08T02:31:11.910Z,116.70
2018-02-08T02:33:40.254Z,107.83
2018-02-08T02:36:08.611Z,113.37
2018-02-08T02:38:37.026Z,121.97
2018-02-08T02:41:05.345Z,119.93
2018-02-08T02:43:33.735Z,121.43
2018-02-08T02:46:02.064Z,127.13
2018-02-08T02:48:30.453Z,113.67
2018-02-08T02:50:58.773Z,116.40
2018-02-08T02:53:27.157Z,117.63
2018-02-08T02:55:55.482Z,136.97
2018-02-08T02:58:23.814Z,121.57
2018-02-08T03:00:52.174Z,133.87
2018-02-08T03:03:20.507Z,130.50
2018-02-08T03:05:48.860Z,129.43
2018-02-08T03:08:17.234Z,133.57
2018-02-08T03:10:45.617Z,127.73
2018-02-08T03:13:13.938Z,120.60
2018-02-08T03:15:42.306Z,126.93
2018-02-08T03:18:10.619Z,120.57
2018-02-08T03:20:38.993Z,122.53
2018-02-08T03:23:07.366Z,125.13
2018-02-08T03:25:35.722Z,120.60
2018-02-08T03:28:04.265Z,120.90
2018-02-08T03:30:38.312Z,130.53
2018-02-08T03:33:06.624Z,117.50
2018-02-08T03:35:34.959Z,125.87
2018-02-08T03:38:03.368Z,118.40
2018-02-08T03:40:31.714Z,130.90
2018-02-08T03:43:00.066Z,119.67
2018-02-08T03:45:28.401Z,119.83
2018-02-08T03:47:56.761Z,129.43
2018-02-08T03:50:25.095Z,132.33
2018-02-08T03:52:53.458Z,137.83
2018-02-08T03:55:21.787Z,135.23
2018-02-08T03:57:50.155Z,126.63
2018-02-08T04:00:18.485Z,129.17
2018-02-08T04:02:47.083Z,125.60
2018-02-08T04:05:15.414Z,125.40
2018-02-08T04:07:43.752Z,118.97
2018-02-08T04:10:12.126Z,124.10
2018-02-08T04:12:40.462Z,127.63
2018-02-08T04:15:08.829Z,133.53
2018-02-08T04:17:37.232Z,123.23
2018-02-08T04:20:05.570Z,123.40
2018-02-08T04:22:33.903Z,124.67
2018-02-08T04:25:02.249Z,125.03
2018-02-08T04:27:30.643Z,125.70
2018-02-08T04:29:59.097Z,135.53
2018-02-08T04:32:27.421Z,144.63
2018-02-08T04:34:55.751Z,129.40
2018-02-08T04:37:24.109Z,130.40
2018-02-08T04:40:04.439Z,138.13
2018-02-08T04:42:44.578Z,121.77
2018-02-08T04:45:24.702Z,113.03
2018-02-08T04:47:58.106Z,120.23
2018-02-08T04:50:26.520Z,129.27
2018-02-08T04:52:54.921Z,121.37
2018-02-08T04:55:23.258Z,135.30
2018-02-08T04:57:51.608Z,127.80
2018-02-08T05:00:20.226Z,128.93
2018-02-08T05:02:51.030Z,122.70
2018-02-08T05:05:19.356Z,126.83
2018-02-08T05:07:47.707Z,119.07
2018-02-08T05:10:16.034Z,146.30
2018-02-08T05:12:44.399Z,133.63
2018-02-08T05:15:12.729Z,134.30
2018-02-08T05:17:41.077Z,119.93
2018-02-08T05:20:09.455Z,130.50
2018-02-08T05:22:37.775Z,129.87
2018-02-08T05:25:06.190Z,133.40
2018-02-08T05:27:34.514Z,138.63
2018-02-08T05:30:02.891Z,123.07
2018-02-08T05:32:31.224Z,119.67
2018-02-08T05:34:59.572Z,125.37
2018-02-08T05:37:27.967Z,135.07
2018-02-08T05:39:56.460Z,128.27
2018-02-08T05:42:24.774Z,127.30
2018-02-08T05:44:53.114Z,121.97
2018-02-08T05:47:21.478Z,138.20
2018-02-08T05:49:49.854Z,127.40
2018-02-08T05:52:18.203Z,138.80
2018-02-08T05:54:46.547Z,123.40
2018-02-08T05:57:14.899Z,123.63
2018-02-08T05:59:43.325Z,117.97
2018-02-08T06:02:11.658Z,141.80
2018-02-08T06:04:40.014Z,133.60
2018-02-08T06:07:08.373Z,128.00
2018-02-08T06:09:36.714Z,124.93
2018-02-08T06:12:05.078Z,132.77
2018-02-08T06:14:33.471Z,126.63
2018-02-08T06:17:02.254Z,130.10
2018-02-08T06:19:30.632Z,124.97
2018-02-08T06:21:58.950Z,132.90
2018-02-08T06:24:27.308Z,145.07
2018-02-08T06:26:55.642Z,125.13
2018-02-08T06:29:24.008Z,128.73
2018-02-08T06:31:52.345Z,125.80
2018-02-08T06:34:20.705Z,129.50
2018-02-08T06:36:49.062Z,125.83
2018-02-08T06:39:17.463Z,122.83
2018-02-08T06:41:45.913Z,142.87
2018-02-08T06:44:14.319Z,126.43
2018-02-08T06:46:42.693Z,120.97
2018-02-08T06:49:11.002Z,133.47
2018-02-08T06:51:39.363Z,137.70
2018-02-08T06:54:07.716Z,129.13
2018-02-08T06:56:36.312Z,153.67
2018-02-08T06:59:04.630Z,135.87
2018-02-08T07:01:32.986Z,123.60
2018-02-08T07:04:01.338Z,143.30
2018-02-08T07:06:29.724Z,130.10
2018-02-08T07:08:58.115Z,145.53
2018-02-08T07:11:26.481Z,132.57
2018-02-08T07:13:54.801Z,143.57
2018-02-08T07:16:23.191Z,129.73
2018-02-08T07:18:51.525Z,138.03
2018-02-08T07:21:19.959Z,130.30
2018-02-08T07:23:48.443Z,133.73
2018-02-08T07:26:16.803Z,125.50
2018-02-08T07:31:24.245Z,127.67
2018-02-08T07:33:53.662Z,128.90
2018-02-08T07:36:22.054Z,123.50
2018-02-08T07:38:50.414Z,118.17
2018-02-08T07:41:18.749Z,128.47
2018-02-08T07:43:47.122Z,112.73
2018-02-08T07:46:15.473Z,119.90
2018-02-08T07:48:43.838Z,121.70
2018-02-08T07:51:15.381Z,130.17
2018-02-08T07:53:43.732Z,126.53
2018-02-08T07:56:13.058Z,133.27
2018-02-08T07:58:41.439Z,126.37
2018-02-08T08:01:09.919Z,115.20
2018-02-08T08:03:38.251Z,110.73
2018-02-08T08:06:06.605Z,137.13
2018-02-08T08:08:34.955Z,121.10
2018-02-08T08:11:03.346Z,118.10
2018-02-08T08:13:31.683Z,128.43
2018-02-08T08:16:00.074Z,123.33
2018-02-08T08:18:28.409Z,126.63
2018-02-08T08:20:56.795Z,129.57
2018-02-08T08:23:25.132Z,116.70
2018-02-08T08:25:53.487Z,123.87
2018-02-08T08:28:22.832Z,124.10
2018-02-08T08:30:51.204Z,123.20
2018-02-08T08:33:19.542Z,123.20
2018-02-08T08:35:47.886Z,118.03
2018-02-08T08:38:16.222Z,112.57
2018-02-08T08:40:45.603Z,127.43
2018-02-08T08:43:13.931Z,116.50
2018-02-08T08:45:42.292Z,115.63
2018-02-08T08:48:10.752Z,113.73
2018-02-08T08:50:39.231Z,138.97
2018-02-08T08:53:07.569Z,125.40
2018-02-08T08:55:35.898Z,117.93
2018-02-08T08:58:04.255Z,120.47
2018-02-08T09:00:32.579Z,119.80
2018-02-08T09:03:00.946Z,114.00
2018-02-08T09:05:29.357Z,120.83
2018-02-08T09:07:57.716Z,124.83
2018-02-08T09:10:26.051Z,114.27
2018-02-08T09:12:54.530Z,118.00
2018-02-08T09:15:22.854Z,121.70
2018-02-08T09:17:51.190Z,123.67
2018-02-08T09:20:19.538Z,122.50
2018-02-08T09:22:47.904Z,111.30
2018-02-08T09:25:16.254Z,110.80
2018-02-08T09:27:44.593Z,116.57
2018-02-08T09:30:12.945Z,115.07
2018-02-08T09:32:41.279Z,121.40
2018-02-08T09:35:09.731Z,117.80
2018-02-08T09:37:38.043Z,109.67
2018-02-08T09:40:06.400Z,121.00
2018-02-08T09:42:34.734Z,117.10
2018-02-08T09:45:03.098Z,115.17
2018-02-08T09:47:31.438Z,110.33
2018-02-08T09:49:59.902Z,121.00
2018-02-08T09:52:28.264Z,119.53
2018-02-08T09:54:56.656Z,115.57
2018-02-08T09:57:24.994Z,120.33
2018-02-08T09:59:53.413Z,116.33
2018-02-08T10:02:21.894Z,108.43
2018-02-08T10:04:50.205Z,115.70
2018-02-08T10:07:18.611Z,111.37
2018-02-08T10:09:47.028Z,127.23
2018-02-08T10:12:15.477Z,108.67
2018-02-08T10:14:43.795Z,123.27
2018-02-08T10:17:12.167Z,110.53
2018-02-08T10:19:40.482Z,110.97
2018-02-08T10:22:08.843Z,110.60
2018-02-08T10:24:37.198Z,110.03
2018-02-08T10:27:05.570Z,120.27
2018-02-08T10:29:33.926Z,118.40
2018-02-08T10:32:02.266Z,127.40
2018-02-08T10:34:30.626Z,104.93
2018-02-08T10:36:58.949Z,117.23
2018-02-08T10:39:27.293Z,119.03
2018-02-08T10:41:55.632Z,120.23
2018-02-08T10:44:23.985Z,115.43
2018-02-08T10:46:52.312Z,117.33
2018-02-08T10:49:20.675Z,123.37
2018-02-08T10:51:49.001Z,115.27
2018-02-08T10:54:17.410Z,114.63
2018-02-08T10:56:45.735Z,120.23
2018-02-08T10:59:14.095Z,130.70
2018-02-08T11:01:42.435Z,129.17
2018-02-08T11:04:10.904Z,118.10
2018-02-08T11:06:39.307Z,117.83
2018-02-08T11:09:07.618Z,123.53
2018-02-08T11:11:36.174Z,137.97
2018-02-08T11:14:04.660Z,118.63
2018-02-08T11:16:33.072Z,112.40
2018-02-08T11:19:01.410Z,130.23
2018-02-08T11:21:29.770Z,114.03
2018-02-08T11:23:58.111Z,105.77
2018-02-08T11:26:26.465Z,116.63
2018-02-08T11:28:54.835Z,109.27
2018-02-08T11:31:23.303Z,118.57
2018-02-08T11:33:51.705Z,120.17
2018-02-08T11:36:20.028Z,123.10
2018-02-08T11:38:48.386Z,124.70
2018-02-08T11:41:16.727Z,115.47
2018-02-08T11:43:45.076Z,124.67
2018-02-08T11:46:13.491Z,110.27
2018-02-08T11:48:41.822Z,114.40
2018-02-08T11:51:10.186Z,107.70
2018-02-08T11:53:38.528Z,117.40
2018-02-08T11:56:06.881Z,121.53
2018-02-08T11:58:35.210Z,120.37
2018-02-08T12:01:03.598Z,111.97
2018-02-08T12:03:31.947Z,111.83
2018-02-08T12:06:00.287Z,113.80
2018-02-08T12:08:28.629Z,124.63
2018-02-08T12:10:56.969Z,112.43
2018-02-08T12:13:25.305Z,122.40
2018-02-08T12:15:53.763Z,108.60
2018-02-08T12:18:22.267Z,122.13
2018-02-08T12:20:50.600Z,118.57
2018-02-08T12:23:18.929Z,110.70
2018-02-08T12:25:47.372Z,113.23
2018-02-08T12:28:15.686Z,118.27
2018-02-08T12:30:44.052Z,117.37
2018-02-08T12:33:12.426Z,128.70
2018-02-08T12:35:40.774Z,125.63
2018-02-08T12:38:09.106Z,132.13
2018-02-08T12:40:37.496Z,107.70
2018-02-08T12:43:05.836Z,120.90
2018-02-08T12:45:34.169Z,114.13
2018-02-08T12:48:02.509Z,125.03
2018-02-08T12:50:30.846Z,126.40
2018-02-08T12:52:59.245Z,116.60
2018-02-08T12:55:27.605Z,118.83
2018-02-08T12:57:55.956Z,113.77
2018-02-08T13:00:24.373Z,107.27
2018-02-08T13:02:52.735Z,106.30
2018-02-08T13:05:21.072Z,121.67
2018-02-08T13:07:49.398Z,107.67
2018-02-08T13:10:17.742Z,111.40
2018-02-08T13:12:46.068Z,129.83
2018-02-08T13:15:14.414Z,122.30
2018-02-08T13:17:42.766Z,123.47
2018-02-08T13:20:11.110Z,125.97
2018-02-08T13:22:39.446Z,133.33
2018-02-08T13:25:07.834Z,101.60
2018-02-08T13:27:36.153Z,114.90
2018-02-08T13:30:04.492Z,100.90
2018-02-08T13:32:32.871Z,119.33
2018-02-08T13:35:01.191Z,107.90
2018-02-08T13:37:29.592Z,114.90
2018-02-08T13:40:13.715Z,112.47
2018-02-08T13:42:42.235Z,116.13
2018-02-08T13:45:10.586Z,114.07
2018-02-08T13:47:44.538Z,113.17
2018-02-08T13:50:16.714Z,116.13
2018-02-08T13:52:50.827Z,116.27
2018-02-08T13:58:26.670Z,116.03
2018-02-08T14:00:59.503Z,119.67
2018-02-08T14:03:27.861Z,114.00
2018-02-08T14:05:56.255Z,113.20
2018-02-08T14:08:24.591Z,119.33
2018-02-08T14:10:52.942Z,108.40
2018-02-08T14:13:21.268Z,115.80
2018-02-08T14:15:49.660Z,121.77
2018-02-08T14:18:17.990Z,128.47
2018-02-08T14:20:46.332Z,128.63
2018-02-08T14:23:14.662Z,118.33
2018-02-08T14:25:43.000Z,116.97
2018-02-08T14:28:11.374Z,121.97
2018-02-08T14:30:39.702Z,127.20
2018-02-08T14:33:08.021Z,121.00
2018-02-08T14:35:36.423Z,141.83
2018-02-08T14:38:04.907Z,122.73
2018-02-08T14:40:33.223Z,139.30
2018-02-08T14:43:01.569Z,121.60
2018-02-08T14:45:29.949Z,130.27
2018-02-08T14:47:58.317Z,124.33
2018-02-08T14:50:26.638Z,133.90
2018-02-08T14:52:55.006Z,126.93
2018-02-08T14:55:23.314Z,121.93
2018-02-08T14:57:51.730Z,121.77
2018-02-08T15:00:20.040Z,121.67
2018-02-08T15:02:48.694Z,120.27
2018-02-08T15:05:17.070Z,119.20
2018-02-08T15:07:45.389Z,121.60
2018-02-08T15:10:13.784Z,130.10
2018-02-08T15:12:42.502Z,125.13
2018-02-08T15:15:10.849Z,132.67
2018-02-08T15:17:39.187Z,125.17
2018-02-08T15:20:07.649Z,145.00
2018-02-08T15:22:36.025Z,136.27
2018-02-08T15:25:04.368Z,115.97
2018-02-08T15:27:32.700Z,117.47
2018-02-08T15:30:01.055Z,115.80
2018-02-08T15:32:29.372Z,94.77
2018-02-08T15:34:57.756Z,90.43
2018-02-08T15:37:26.072Z,104.67
2018-02-08T15:39:54.920Z,106.07
2018-02-08T15:42:23.574Z,110.30
2018-02-08T15:44:51.940Z,104.97
2018-02-08T15:47:20.318Z,126.00
2018-02-08T15:49:48.635Z,110.20
2018-02-08T15:52:17.082Z,116.50
2018-02-08T15:54:45.559Z,110.87
2018-02-08T15:57:13.935Z,122.97
2018-02-08T15:59:42.251Z,111.10
2018-02-08T16:02:10.607Z,107.43
2018-02-08T16:04:38.945Z,109.60
2018-02-08T16:07:07.277Z,117.40
2018-02-08T16:09:35.615Z,111.87
2018-02-08T16:12:03.954Z,114.27
2018-02-08T16:14:32.316Z,108.33
2018-02-08T16:17:00.658Z,109.87
2018-02-08T16:19:29.003Z,102.53
2018-02-08T16:21:57.338Z,114.23
2018-02-08T16:24:25.690Z,109.93
2018-02-08T16:26:54.014Z,111.37
2018-02-08T16:29:22.374Z,97.17
2018-02-08T16:31:51.369Z,108.57
2018-02-08T16:34:19.782Z,112.63
2018-02-08T16:36:48.094Z,98.73
2018-02-08T16:39:16.490Z,98.13
2018-02-08T16:41:44.814Z,106.10
2018-02-08T16:44:13.153Z,119.73
2018-02-08T16:46:41.499Z,128.70
2018-02-08T16:49:09.863Z,141.47
2018-02-08T16:51:38.207Z,141.63
2018-02-08T16:54:06.552Z,117.90
2018-02-08T16:56:34.896Z,129.77
2018-02-08T16:59:03.301Z,129.57
2018-02-08T17:01:31.640Z,125.93
2018-02-08T17:03:59.970Z,145.33
2018-02-08T17:06:28.352Z,137.33
2018-02-08T17:08:56.656Z,131.97
2018-02-08T17:11:25.030Z,148.30
2018-02-08T17:13:53.541Z,136.97
2018-02-08T17:16:21.914Z,153.63
2018-02-08T17:18:50.285Z,125.60
2018-02-08T17:21:18.733Z,133.93
2018-02-08T17:23:47.958Z,145.50
2018-02-08T17:26:16.293Z,124.73
2018-02-08T17:28:44.839Z,136.67
2018-02-08T17:31:13.205Z,136.97
2018-02-08T17:33:41.546Z,137.33
2018-02-08T17:36:09.891Z,125.63
2018-02-08T17:38:38.235Z,129.27
2018-02-08T17:41:06.562Z,129.90
2018-02-08T17:43:34.898Z,135.47
2018-02-08T17:46:03.378Z,129.03
2018-02-08T17:48:31.782Z,129.80
2018-02-08T17:51:00.108Z,126.13
2018-02-08T17:53:28.440Z,121.47
2018-02-08T17:55:56.807Z,127.13
2018-02-08T17:58:25.119Z,122.17
2018-02-08T18:00:53.467Z,109.23
2018-02-08T18:03:21.797Z,115.33
2018-02-08T18:05:50.153Z,108.93
2018-02-08T18:08:18.486Z,113.17
2018-02-08T18:10:46.982Z,105.60
2018-02-08T18:13:15.287Z,121.73
2018-02-08T18:15:43.842Z,121.07
2018-02-08T18:18:12.156Z,107.43
2018-02-08T18:20:40.719Z,109.33
2018-02-08T18:23:09.067Z,107.90
2018-02-08T18:25:37.396Z,101.67
2018-02-08T18:28:05.717Z,113.13
2018-02-08T18:30:34.046Z,105.73
2018-02-08T18:33:02.362Z,109.17
2018-02-08T18:35:30.707Z,103.97
2018-02-08T18:37:59.058Z,92.33
2018-02-08T18:40:27.415Z,107.40
2018-02-08T18:42:55.728Z,116.50
2018-02-08T18:45:24.058Z,100.03
2018-02-08T18:47:52.373Z,97.73
2018-02-08T18:50:20.719Z,96.03
2018-02-08T18:52:49.058Z,90.33
2018-02-08T18:55:17.366Z,98.53
2018-02-08T18:57:45.762Z,95.37
2018-02-08T19:00:14.083Z,94.87
2018-02-08T19:02:42.520Z,96.77
2018-02-08T19:05:10.862Z,97.90
2018-02-08T19:07:39.272Z,94.90
2018-02-08T19:10:07.593Z,94.03
2018-02-08T19:12:35.909Z,95.40
2018-02-08T19:15:04.321Z,96.17
2018-02-08T19:17:32.685Z,85.50
2018-02-08T19:20:01.035Z,100.13
2018-02-08T19:22:29.399Z,94.47
2018-02-08T19:24:57.735Z,95.53
2018-02-08T19:27:26.056Z,97.70
2018-02-08T19:29:54.434Z,104.43
2018-02-08T19:32:22.772Z,103.30
2018-02-08T19:34:51.094Z,97.97
2018-02-08T19:37:19.442Z,103.13
2018-02-08T19:39:47.846Z,91.90
2018-02-08T19:42:16.162Z,96.87
2018-02-08T19:44:44.790Z,116.00
2018-02-08T19:47:13.126Z,87.80
2018-02-08T19:49:41.446Z,97.37
2018-02-08T19:52:09.769Z,105.27
2018-02-08T19:54:38.122Z,88.07
2018-02-08T19:57:06.463Z,90.17
2018-02-08T19:59:34.822Z,101.93
2018-02-08T20:02:03.258Z,103.77
2018-02-08T20:04:31.672Z,110.20
2018-02-08T20:07:00.047Z,102.73
2018-02-08T20:09:28.398Z,99.63
2018-02-08T20:11:56.727Z,100.90
2018-02-08T20:14:30.621Z,106.50
2018-02-08T20:16:58.955Z,104.77
2018-02-08T20:19:27.291Z,96.90
2018-02-08T20:21:55.643Z,114.17
2018-02-08T20:24:23.963Z,111.67
2018-02-08T20:26:52.367Z,111.57
2018-02-08T20:29:20.683Z,116.20
2018-02-08T20:31:49.003Z,112.33
2018-02-08T20:34:17.356Z,123.10
2018-02-08T20:36:45.659Z,118.40
2018-02-08T20:39:13.990Z,110.97
2018-02-08T20:41:42.367Z,132.47
2018-02-08T20:44:10.740Z,124.03
2018-02-08T20:46:39.046Z,125.70
2018-02-08T20:49:07.386Z,130.33
2018-02-08T20:51:35.705Z,126.17
2018-02-08T20:54:04.053Z,125.13
2018-02-08T20:56:32.366Z,131.37
2018-02-08T20:59:00.699Z,123.40
2018-02-08T21:01:29.019Z,116.63
2018-02-08T21:03:57.363Z,127.57
2018-02-08T21:06:25.686Z,142.37
2018-02-08T21:08:54.019Z,139.90
2018-02-08T21:11:22.343Z,147.30
2018-02-08T21:13:50.732Z,127.97
2018-02-08T21:16:19.094Z,134.83
2018-02-08T21:18:47.428Z,139.00
2018-02-08T21:21:15.756Z,136.60
2018-02-08T21:23:44.078Z,146.40
2018-02-08T21:26:12.409Z,135.83
2018-02-08T21:28:40.730Z,154.87
2018-02-08T21:31:09.107Z,147.00
2018-02-08T21:33:37.405Z,147.73
2018-02-08T21:36:05.741Z,158.23
2018-02-08T21:38:34.061Z,143.40
2018-02-08T21:41:02.389Z,144.93
2018-02-08T21:43:30.736Z,164.03
2018-02-08T21:45:59.197Z,151.40
2018-02-08T21:48:27.513Z,161.30
2018-02-08T21:50:55.937Z,147.90
2018-02-08T21:53:24.313Z,150.90
2018-02-08T21:55:52.622Z,149.80
2018-02-08T21:58:20.972Z,158.67
2018-02-08T22:00:49.298Z,158.23
2018-02-08T22:03:17.642Z,169.30
2018-02-08T22:05:46.021Z,155.23
2018-02-08T22:08:14.301Z,178.73
2018-02-08T22:10:42.693Z,137.07
2018-02-08T22:13:11.044Z,166.83
2018-02-08T22:15:39.395Z,162.97
2018-02-08T22:18:07.729Z,185.87
2018-02-08T22:20:36.085Z,164.80
2018-02-08T22:23:04.511Z,175.67
2018-02-08T22:25:32.834Z,170.40
2018-02-08T22:28:01.185Z,159.67
2018-02-08T22:30:29.500Z,182.30
2018-02-08T22:32:57.953Z,158.47
2018-02-08T22:35:26.279Z,165.87
2018-02-08T22:37:54.610Z,154.97
2018-02-08T22:40:22.984Z,156.33
2018-02-08T22:42:51.322Z,167.97
2018-02-08T22:45:19.664Z,165.13
2018-02-08T22:47:48.101Z,144.43
2018-02-08T22:50:16.493Z,154.60
2018-02-08T22:52:45.742Z,148.53
2018-02-08T22:55:14.090Z,160.10
2018-02-08T22:57:42.415Z,170.77
2018-02-08T23:00:10.779Z,166.10
2018-02-08T23:02:39.209Z,153.33
2018-02-08T23:05:07.573Z,156.40
2018-02-08T23:07:35.973Z,162.80
2018-02-08T23:10:04.309Z,170.13
2018-02-08T23:12:32.721Z,151.43
2018-02-08T23:15:01.035Z,147.43
2018-02-08T23:17:29.355Z,164.83
2018-02-08T23:19:57.682Z,151.00
2018-02-08T23:22:26.038Z,153.80
2018-02-08T23:24:54.375Z,171.03
2018-02-08T23:27:22.707Z,155.47
2018-02-08T23:29:51.042Z,148.63
2018-02-08T23:32:19.633Z,163.43
2018-02-08T23:34:47.989Z,167.90
2018-02-08T23:37:16.333Z,175.70
2018-02-08T23:39:44.655Z,166.90
2018-02-08T23:42:13.057Z,157.47
2018-02-08T23:44:41.479Z,159.13
2018-02-08T23:47:09.772Z,159.77
2018-02-08T23:49:38.103Z,157.70
2018-02-08T23:52:06.430Z,163.17
2018-02-08T23:54:34.771Z,160.10
2018-02-08T23:57:03.090Z,154.83
2018-02-08T23:59:31.650Z,167.83
